Time;durP1;ratioP1;P1;durP2;ratioP2;P2;SDS_P1;SDS_P2;PMS_P1;PMS_P2;Temp;Humidity;BMP_temperature;BMP_pressure;BME280_temperature;BME280_humidity;BME280_pressure;Samples;Min_cycle;Max_cycle;Signal;HPM_P1;HPM_P2
2021/01/04 00:00:31;;;;;;;36.40;17.67;;;;;;;-0.56;91.01;98594.34;5030104;28;20049;-82
2021/01/04 00:03:15;;;;;;;43.97;19.00;;;;;;;-0.37;90.55;98610.53;5031458;28;20482;-83
2021/01/04 00:05:53;;;;;;;42.50;19.03;;;;;;;-0.43;91.00;98597.69;5031887;28;20045;-83
2021/01/04 00:09:00;;;;;;;38.67;17.53;;;;;;;-0.42;91.23;98603.88;5030626;28;20076;-82
2021/01/04 00:11:37;;;;;;;39.60;18.03;;;;;;;-0.46;91.53;98591.78;5031118;28;20053;-82
2021/01/04 00:14:14;;;;;;;45.63;18.87;;;;;;;-0.47;91.45;98596.25;5029722;28;20553;-82
2021/01/04 00:16:49;;;;;;;40.70;18.80;;;;;;;-0.38;91.24;98590.16;5031850;28;20045;-82
2021/01/04 00:19:20;;;;;;;40.00;16.93;;;;;;;-0.56;91.09;98581.88;5030899;28;20050;-83
2021/01/04 00:21:57;;;;;;;41.20;17.27;;;;;;;-0.54;91.97;98595.91;5030300;28;20372;-82
2021/01/04 00:24:36;;;;;;;39.47;17.17;;;;;;;-0.56;91.23;98591.69;5029911;28;20049;-82
2021/01/04 00:27:10;;;;;;;47.23;18.43;;;;;;;-0.56;91.69;98575.66;5030821;28;20049;-82
2021/01/04 00:29:36;;;;;;;40.47;19.27;;;;;;;-0.45;91.37;98591.63;5031198;28;20061;-82
2021/01/04 00:32:15;;;;;;;46.17;20.50;;;;;;;-0.58;91.89;98577.63;5031270;28;20060;-82
2021/01/04 00:34:46;;;;;;;37.97;18.17;;;;;;;-0.49;91.75;98584.00;5030958;28;20045;-82
2021/01/04 00:37:45;;;;;;;43.47;19.80;;;;;;;-0.43;91.37;98595.00;5029960;28;20042;-82
2021/01/04 00:40:18;;;;;;;40.23;17.83;;;;;;;-0.45;91.96;98601.44;5028443;28;20486;-82
2021/01/04 00:42:49;;;;;;;40.40;17.43;;;;;;;-0.45;91.68;98599.66;5031259;28;20046;-82
2021/01/04 00:45:23;;;;;;;46.40;21.00;;;;;;;-0.49;91.50;98598.19;5030324;28;20048;-82
2021/01/04 00:48:07;;;;;;;38.13;18.13;;;;;;;-0.44;91.75;98598.66;5030754;28;20178;-82
2021/01/04 00:50:57;;;;;;;43.70;19.33;;;;;;;-0.54;91.60;98589.75;5026512;28;20045;-82
2021/01/04 00:53:31;;;;;;;39.17;18.35;;;;;;;-0.47;91.72;98609.59;5030033;28;20057;-82
2021/01/04 00:56:17;;;;;;;39.93;17.63;;;;;;;-0.58;91.96;98596.31;5030722;28;20045;-82
2021/01/04 00:59:12;;;;;;;39.63;17.27;;;;;;;-0.54;91.81;98592.41;5030515;28;20045;-81
2021/01/04 01:02:17;;;;;;;40.03;16.67;;;;;;;-0.62;91.72;98582.34;5028026;28;20046;-82
2021/01/04 01:04:55;;;;;;;37.63;17.73;;;;;;;-0.52;92.36;98603.81;5021996;28;20508;-81
2021/01/04 01:07:53;;;;;;;35.17;17.33;;;;;;;-0.63;91.55;98587.81;5030777;28;20076;-82
2021/01/04 01:10:20;;;;;;;37.40;17.17;;;;;;;-0.46;91.63;98602.44;5030723;28;20440;-82
2021/01/04 01:12:55;;;;;;;39.10;17.83;;;;;;;-0.49;91.69;98606.22;5030062;28;20485;-82
2021/01/04 01:15:28;;;;;;;35.03;17.33;;;;;;;-0.50;91.82;98601.00;5025251;28;20049;-82
2021/01/04 01:18:24;;;;;;;38.40;17.10;;;;;;;-0.58;91.79;98604.31;5030023;28;20084;-82
2021/01/04 01:20:54;;;;;;;36.37;16.93;;;;;;;-0.45;91.14;98622.81;5016540;28;20491;-82
2021/01/04 01:23:23;;;;;;;40.13;17.40;;;;;;;-0.50;92.36;98620.53;5031200;28;20045;-82
2021/01/04 01:26:03;;;;;;;37.17;17.63;;;;;;;-0.41;91.90;98625.09;5030950;28;20057;-82
2021/01/04 01:28:59;;;;;;;38.42;17.27;;;;;;;-0.44;92.12;98617.34;5022646;28;20049;-82
2021/01/04 01:31:45;;;;;;;41.97;17.03;;;;;;;-0.45;91.90;98626.34;5023455;28;20733;-82
2021/01/04 01:34:32;;;;;;;39.30;17.80;;;;;;;-0.58;91.57;98610.50;5025451;28;20038;-82
2021/01/04 01:37:22;;;;;;;41.40;18.27;;;;;;;-0.43;91.42;98615.53;5024164;28;20049;-82
2021/01/04 01:40:21;;;;;;;40.87;19.00;;;;;;;-0.48;91.24;98621.28;5024980;28;20076;-82
2021/01/04 01:43:21;;;;;;;40.00;18.17;;;;;;;-0.51;91.43;98618.84;5030671;28;20041;-82
2021/01/04 01:45:55;;;;;;;44.20;19.55;;;;;;;-0.40;90.93;98634.81;5030494;28;20053;-82
2021/01/04 01:48:44;;;;;;;47.20;19.43;;;;;;;-0.32;90.54;98628.00;5031623;28;20053;-81
2021/01/04 01:51:25;;;;;;;51.87;19.53;;;;;;;-0.44;90.03;98605.81;5034337;28;20107;-82
2021/01/04 01:54:02;;;;;;;37.53;18.30;;;;;;;-0.37;91.44;98628.38;5034534;28;20050;-81
2021/01/04 01:56:40;;;;;;;48.03;18.97;;;;;;;-0.46;91.07;98626.47;5033949;28;20103;-82
2021/01/04 01:59:32;;;;;;;43.53;19.13;;;;;;;-0.58;91.57;98618.50;5034872;28;20525;-82
2021/01/04 02:02:06;;;;;;;38.87;16.83;;;;;;;-0.59;91.67;98607.94;5034145;28;20405;-82
2021/01/04 02:04:42;;;;;;;41.63;18.60;;;;;;;-0.53;91.94;98618.13;5014077;28;20514;-82
2021/01/04 02:07:15;;;;;;;48.30;19.97;;;;;;;-0.47;90.90;98619.44;5032326;28;20049;-81
2021/01/04 02:09:46;;;;;;;48.17;20.20;;;;;;;-0.50;91.10;98606.34;5034445;28;20046;-82
2021/01/04 02:12:21;;;;;;;43.03;18.90;;;;;;;-0.50;91.75;98622.38;5033948;28;20057;-82
2021/01/04 02:14:59;;;;;;;40.60;18.43;;;;;;;-0.58;92.00;98621.19;5033059;28;20053;-82
2021/01/04 02:17:36;;;;;;;39.37;17.50;;;;;;;-0.58;91.78;98637.19;5033692;28;20041;-82
2021/01/04 02:20:28;;;;;;;38.10;18.63;;;;;;;-0.54;91.87;98630.63;5033680;28;20045;-82
2021/01/04 02:23:12;;;;;;;37.87;16.60;;;;;;;-0.56;92.12;98632.59;5033530;28;20057;-81
2021/01/04 02:25:43;;;;;;;45.90;18.13;;;;;;;-0.62;91.93;98613.56;5032838;28;20081;-81
2021/01/04 02:28:14;;;;;;;41.57;17.87;;;;;;;-0.56;91.77;98632.59;5032973;28;20139;-82
2021/01/04 02:30:41;;;;;;;45.13;18.70;;;;;;;-0.62;91.95;98618.88;5033852;28;20056;-82
2021/01/04 02:33:10;;;;;;;46.43;20.90;;;;;;;-0.62;91.82;98613.56;5033534;28;20046;-82
2021/01/04 02:35:40;;;;;;;38.87;18.10;;;;;;;-0.53;91.66;98628.81;5032689;28;20064;-81
2021/01/04 02:38:09;;;;;;;42.77;18.90;;;;;;;-0.70;91.42;98608.84;5033705;28;20395;-82
2021/01/04 02:40:35;;;;;;;43.73;18.43;;;;;;;-0.54;91.90;98629.81;5033256;28;20057;-81
2021/01/04 02:43:04;;;;;;;47.60;20.43;;;;;;;-0.61;91.94;98624.09;5033259;28;20049;-82
2021/01/04 02:45:32;;;;;;;42.83;18.10;;;;;;;-0.49;91.53;98626.75;5032639;28;20426;-81
2021/01/04 02:48:22;;;;;;;43.43;18.67;;;;;;;-0.51;91.70;98637.56;5032991;28;20060;-81
2021/01/04 02:51:00;;;;;;;44.15;17.27;;;;;;;-0.53;91.87;98620.78;5033429;28;20049;-82
2021/01/04 02:53:59;;;;;;;42.83;19.27;;;;;;;-0.46;91.41;98621.16;5032910;28;20052;-82
2021/01/04 02:56:39;;;;;;;50.33;18.60;;;;;;;-0.48;91.57;98623.06;5032890;28;20037;-81
2021/01/04 02:59:23;;;;;;;39.77;17.83;;;;;;;-0.57;91.87;98622.88;5024695;28;20143;-82
2021/01/04 03:01:56;;;;;;;46.10;19.23;;;;;;;-0.51;91.62;98636.69;5033108;28;20060;-82
2021/01/04 03:04:24;;;;;;;44.43;18.37;;;;;;;-0.60;92.29;98623.13;5032677;28;20049;-82
2021/01/04 03:06:58;;;;;;;44.33;18.93;;;;;;;-0.58;92.07;98631.03;5033419;28;20091;-82
2021/01/04 03:09:26;;;;;;;43.37;18.43;;;;;;;-0.63;92.07;98623.41;5033108;28;20049;-82
2021/01/04 03:11:53;;;;;;;44.13;18.47;;;;;;;-0.58;92.54;98639.03;5032734;28;20048;-82
2021/01/04 03:14:43;;;;;;;43.90;18.30;;;;;;;-0.68;91.92;98622.06;5032367;28;20531;-82
2021/01/04 03:17:17;;;;;;;41.07;18.07;;;;;;;-0.67;91.84;98626.44;5020643;28;20080;-82
2021/01/04 03:19:49;;;;;;;48.53;18.60;;;;;;;-0.53;91.89;98636.81;5032859;28;20490;-82
2021/01/04 03:22:17;;;;;;;41.37;19.10;;;;;;;-0.51;91.61;98634.00;5026923;28;20049;-82
2021/01/04 03:24:47;;;;;;;42.67;18.73;;;;;;;-0.67;91.67;98618.44;5032015;28;20060;-81
2021/01/04 03:27:19;;;;;;;36.28;18.25;;;;;;;-0.65;92.02;98622.66;5032172;28;20056;-82
2021/01/04 03:29:46;;;;;;;39.37;17.90;;;;;;;-0.54;91.91;98629.81;5016791;28;20045;-81
2021/01/04 03:32:15;;;;;;;40.70;19.60;;;;;;;-0.62;92.24;98619.72;5032397;28;20041;-81
2021/01/04 03:34:41;;;;;;;46.37;19.67;;;;;;;-0.58;92.07;98645.19;5032410;28;20064;-82
2021/01/04 03:37:08;;;;;;;39.93;18.63;;;;;;;-0.66;91.89;98637.00;5032012;28;20495;-82
2021/01/04 03:39:34;;;;;;;46.83;18.23;;;;;;;-0.64;92.38;98627.03;5032283;28;20057;-82
2021/01/04 03:42:01;;;;;;;38.40;17.53;;;;;;;-0.68;91.85;98620.25;5032345;28;20061;-82
2021/01/04 03:44:30;;;;;;;43.33;19.80;;;;;;;-0.58;92.21;98633.69;5031065;28;20045;-81
2021/01/04 03:46:57;;;;;;;40.33;18.33;;;;;;;-0.63;92.37;98635.88;5032287;28;20192;-81
2021/01/04 03:49:24;;;;;;;42.63;19.27;;;;;;;-0.72;92.04;98622.31;5031961;28;20049;-82
2021/01/04 03:51:52;;;;;;;42.00;18.00;;;;;;;-0.70;92.20;98619.53;5032041;28;20145;-81
2021/01/04 03:54:19;;;;;;;44.17;17.83;;;;;;;-0.61;92.20;98633.94;5032160;28;20054;-82
2021/01/04 03:56:45;;;;;;;47.20;19.50;;;;;;;-0.65;92.37;98628.00;5031727;28;20041;-81
2021/01/04 03:59:13;;;;;;;42.20;19.80;;;;;;;-0.63;92.20;98622.53;5032686;28;20099;-81
2021/01/04 04:01:39;;;;;;;44.43;19.03;;;;;;;-0.62;92.26;98626.91;5032580;28;20137;-81
2021/01/04 04:04:06;;;;;;;47.57;20.73;;;;;;;-0.60;92.57;98632.97;5031948;28;20044;-81
2021/01/04 04:06:34;;;;;;;48.67;19.60;;;;;;;-0.54;92.11;98640.47;5031888;28;20053;-81
2021/01/04 04:09:01;;;;;;;46.80;20.80;;;;;;;-0.47;91.57;98635.47;5032074;28;20049;-81
2021/01/04 04:11:30;;;;;;;38.47;17.57;;;;;;;-0.60;91.21;98630.31;5031288;28;20099;-81
2021/01/04 04:13:56;;;;;;;45.00;19.60;;;;;;;-0.72;91.37;98616.16;5031496;28;20057;-81
2021/01/04 04:16:22;;;;;;;44.60;18.20;;;;;;;-0.62;91.83;98640.25;5031185;28;20049;-82
2021/01/04 04:18:48;;;;;;;40.10;17.10;;;;;;;-0.63;91.56;98634.06;5031474;28;20125;-81
2021/01/04 04:21:16;;;;;;;48.50;17.30;;;;;;;-0.64;91.43;98637.72;5031615;28;20041;-81
2021/01/04 04:23:42;;;;;;;39.97;18.03;;;;;;;-0.64;91.14;98632.38;5031027;28;20045;-80
2021/01/04 04:26:16;;;;;;;40.90;17.00;;;;;;;-0.74;91.33;98620.75;5030665;28;20045;-81
2021/01/04 04:28:42;;;;;;;38.33;17.60;;;;;;;-0.63;91.10;98628.72;5031415;28;20049;-81
2021/01/04 04:31:10;;;;;;;37.93;15.80;;;;;;;-0.70;92.15;98624.88;5031021;28;20111;-81
2021/01/04 04:33:36;;;;;;;46.70;18.13;;;;;;;-0.76;92.18;98634.22;5030938;28;20048;-81
2021/01/04 04:36:02;;;;;;;42.33;18.53;;;;;;;-0.62;91.83;98640.25;5029261;28;20042;-81
2021/01/04 04:38:30;;;;;;;42.47;15.60;;;;;;;-0.65;91.73;98625.31;5031119;28;20053;-81
2021/01/04 04:40:56;;;;;;;42.27;18.00;;;;;;;-0.83;92.12;98608.16;5031123;28;20478;-81
2021/01/04 04:43:30;;;;;;;40.90;17.57;;;;;;;-0.64;91.67;98634.19;5031352;28;20064;-81
2021/01/04 04:45:57;;;;;;;36.63;17.60;;;;;;;-0.70;91.96;98624.03;5031087;28;20045;-81
2021/01/04 04:48:41;;;;;;;40.03;16.30;;;;;;;-0.66;92.42;98628.13;5029425;28;20493;-81
2021/01/04 04:51:21;;;;;;;39.87;16.03;;;;;;;-0.68;92.31;98632.75;5031077;28;20148;-81
2021/01/04 04:54:07;;;;;;;41.03;18.27;;;;;;;-0.73;92.36;98625.97;5030373;28;20045;-81
2021/01/04 04:57:03;;;;;;;40.40;16.77;;;;;;;-0.77;92.01;98626.34;5030634;28;20087;-81
2021/01/04 04:59:54;;;;;;;37.20;16.50;;;;;;;-0.75;92.52;98632.41;5026385;28;20091;-81
2021/01/04 05:02:32;;;;;;;33.97;15.10;;;;;;;-0.72;92.58;98638.34;5023580;28;20038;-81
2021/01/04 05:05:22;;;;;;;37.60;16.43;;;;;;;-0.74;92.12;98634.09;5029577;28;20046;-81
2021/01/04 05:07:50;;;;;;;;;;;;;;;-0.67;92.78;98642.47;5031889;28;20099;-79
2021/01/04 05:10:20;;;;;;;41.03;16.10;;;;;;;-0.64;92.36;98648.38;5030871;28;19931;-80
2021/01/04 05:12:59;;;;;;;40.00;15.82;;;;;;;-0.84;92.21;98618.00;5031341;28;20551;-79
2021/01/04 05:15:37;;;;;;;49.70;18.53;;;;;;;-0.72;91.93;98638.34;5030038;28;20704;-80
2021/01/04 05:18:38;;;;;;;42.63;16.73;;;;;;;-0.84;91.75;98642.03;5030423;28;20482;-80
2021/01/04 05:21:34;;;;;;;41.97;17.03;;;;;;;-0.69;92.32;98663.06;5030257;28;20064;-80
2021/01/04 05:24:39;;;;;;;41.20;16.53;;;;;;;-0.68;92.57;98656.78;5035262;28;20049;-82
2021/01/04 05:27:51;;;;;;;36.37;15.87;;;;;;;-0.65;92.03;98659.19;5034388;28;20049;-81
2021/01/04 05:30:31;;;;;;;49.40;17.40;;;;;;;-0.61;91.57;98661.47;5036393;28;20083;-81
2021/01/04 05:33:23;;;;;;;41.40;16.47;;;;;;;-0.52;91.08;98657.22;5035890;28;20061;-82
2021/01/04 05:35:53;;;;;;;41.40;17.00;;;;;;;-0.70;90.97;98621.38;5034781;28;20080;-81
2021/01/04 05:38:26;;;;;;;40.83;16.53;;;;;;;-0.71;91.05;98623.16;5034324;28;20053;-82
2021/01/04 05:41:38;;;;;;;36.73;14.57;;;;;;;-0.60;91.34;98654.34;5034988;28;20525;-81
2021/01/04 05:44:28;;;;;;;34.40;15.13;;;;;;;-0.73;91.87;98665.16;5001770;28;20053;-82
2021/01/04 05:47:04;;;;;;;38.17;16.57;;;;;;;-0.84;92.44;98641.16;5034700;28;20045;-82
2021/01/04 05:49:35;;;;;;;38.20;15.53;;;;;;;-0.91;92.15;98627.47;5034078;28;20056;-81
2021/01/04 05:52:02;;;;;;;43.37;16.13;;;;;;;-0.97;92.36;98627.97;5034422;28;20056;-81
2021/01/04 05:54:32;;;;;;;40.27;16.50;;;;;;;-0.78;92.15;98652.19;5033672;28;20050;-81
2021/01/04 05:57:05;;;;;;;;;;;;;;;-0.75;91.98;98654.63;5034798;28;20490;-81
2021/01/04 05:59:31;;;;;;;34.23;14.33;;;;;;;-0.81;92.10;98648.91;5034243;28;20316;-81
2021/01/04 06:02:06;;;;;;;35.13;15.20;;;;;;;-0.92;92.25;98628.44;5033944;28;20493;-81
2021/01/04 06:04:32;;;;;;;42.07;16.17;;;;;;;-0.69;92.37;98655.94;5033761;28;20045;-81
2021/01/04 06:07:02;;;;;;;38.57;17.23;;;;;;;-0.72;92.19;98662.38;5034054;28;20053;-81
2021/01/04 06:09:30;;;;;;;37.22;16.08;;;;;;;-0.78;92.13;98654.88;5034596;28;20041;-81
2021/01/04 06:11:59;;;;;;;38.10;17.10;;;;;;;-0.94;92.33;98625.91;5033821;28;20041;-81
2021/01/04 06:14:27;;;;;;;41.72;17.30;;;;;;;-0.84;92.16;98649.16;5032876;28;20046;-81
2021/01/04 06:17:02;;;;;;;37.77;16.53;;;;;;;-0.83;92.58;98646.38;5033820;28;20041;-81
2021/01/04 06:19:34;;;;;;;43.87;16.80;;;;;;;-0.71;92.36;98655.19;5033666;28;20046;-82
2021/01/04 06:22:08;;;;;;;39.97;16.70;;;;;;;-0.70;91.80;98654.22;5033622;28;20045;-81
2021/01/04 06:24:36;;;;;;;35.97;15.40;;;;;;;-0.69;92.12;98655.94;5030738;28;20084;-82
2021/01/04 06:27:09;;;;;;;39.33;16.50;;;;;;;-0.62;91.65;98646.44;5033597;28;20041;-82
2021/01/04 06:29:41;;;;;;;35.17;15.53;;;;;;;-0.71;91.15;98628.50;5033371;28;20533;-82
2021/01/04 06:32:23;;;;;;;33.73;13.43;;;;;;;-0.61;91.77;98652.63;5033594;28;20556;-82
2021/01/04 06:34:55;;;;;;;34.80;14.77;;;;;;;-0.63;91.82;98651.91;5032727;28;20485;-81
2021/01/04 06:37:25;;;;;;;35.47;14.70;;;;;;;-0.65;91.52;98657.34;5032748;28;20053;-81
2021/01/04 06:40:00;;;;;;;43.20;16.40;;;;;;;-0.82;92.11;98644.56;5050123;28;20084;-82
2021/01/04 06:42:27;;;;;;;42.10;17.13;;;;;;;-0.68;92.47;98660.28;5033590;28;20513;-82
2021/01/04 06:45:11;;;;;;;42.37;16.70;;;;;;;-0.74;92.22;98644.78;5032383;28;20055;-81
2021/01/04 06:47:52;;;;;;;40.20;17.27;;;;;;;-0.73;91.67;98655.31;5034026;28;20510;-82
2021/01/04 06:50:34;;;;;;;39.40;16.67;;;;;;;-0.78;92.54;98646.03;5033231;28;20095;-82
2021/01/04 06:53:44;;;;;;;38.73;15.70;;;;;;;-0.86;92.67;98635.09;5022836;28;20042;-81
2021/01/04 06:56:49;;;;;;;46.38;16.65;;;;;;;-0.69;91.89;98650.59;5024760;28;20064;-81
2021/01/04 06:59:47;;;;;;;42.13;17.70;;;;;;;-0.70;91.66;98637.38;5033693;28;20046;-82
2021/01/04 07:02:53;;;;;;;44.17;17.60;;;;;;;-0.64;92.09;98656.41;5032294;28;20123;-82
2021/01/04 07:05:44;;;;;;;45.10;17.90;;;;;;;-0.64;91.38;98648.38;5015738;28;20489;-82
2021/01/04 07:08:39;;;;;;;48.87;18.37;;;;;;;-0.51;91.09;98663.38;5032962;28;20049;-82
2021/01/04 07:11:25;;;;;;;42.20;18.00;;;;;;;-0.53;91.09;98655.50;5033229;28;20121;-82
2021/01/04 07:14:04;;;;;;;49.90;18.33;;;;;;;-0.43;90.82;98659.13;5033340;28;20057;-82
2021/01/04 07:16:58;;;;;;;44.45;15.48;;;;;;;-0.57;91.44;98656.75;5031745;28;20038;-82
2021/01/04 07:19:42;;;;;;;36.17;16.03;;;;;;;-0.63;90.92;98647.41;5022052;28;20053;-79
2021/01/04 07:22:19;;;;;;;38.57;16.47;;;;;;;-0.60;90.64;98649.00;5032145;28;20046;-79
2021/01/04 07:25:00;;;;;;;38.37;15.23;;;;;;;-0.62;91.09;98664.28;5029141;28;20064;-79
2021/01/04 07:27:39;;;;;;;39.83;16.00;;;;;;;-0.59;91.32;98648.00;5033302;28;20123;-79
2021/01/04 07:30:20;;;;;;;41.77;15.30;;;;;;;-0.62;91.25;98654.44;5033077;28;20046;-79
2021/01/04 07:32:57;;;;;;;38.93;15.97;;;;;;;-0.66;91.35;98662.81;5032805;28;20045;-79
2021/01/04 07:35:31;;;;;;;41.70;16.50;;;;;;;-0.74;91.42;98645.63;5032705;28;20056;-79
2021/01/04 07:38:13;;;;;;;44.20;16.10;;;;;;;-0.57;90.95;98652.25;5032136;28;20057;-80
2021/01/04 07:40:49;;;;;;;41.97;16.67;;;;;;;-0.69;91.20;98649.72;5032753;28;20092;-79
2021/01/04 07:43:44;;;;;;;42.23;15.27;;;;;;;-0.75;91.35;98651.09;5032997;28;20103;-79
2021/01/04 07:46:59;;;;;;;34.13;15.80;;;;;;;-0.83;91.53;98653.53;5032164;28;20053;-79
2021/01/04 07:50:23;;;;;;;36.20;14.93;;;;;;;-0.63;91.53;98673.25;5032365;28;20478;-79
2021/01/04 07:53:24;;;;;;;46.00;16.77;;;;;;;-0.62;91.83;98674.97;5032525;28;20052;-79
2021/01/04 07:56:09;;;;;;;41.13;16.53;;;;;;;-0.66;91.82;98663.69;5032285;28;20497;-79
2021/01/04 07:58:58;;;;;;;47.67;17.53;;;;;;;-0.61;91.77;98677.50;5032308;28;20045;-79
2021/01/04 08:02:02;;;;;;;40.50;15.80;;;;;;;-0.59;91.82;98677.38;5032393;28;20045;-79
2021/01/04 08:05:04;;;;;;;42.40;17.00;;;;;;;-0.63;91.62;98657.22;4988814;28;20084;-80
2021/01/04 08:08:15;;;;;;;39.33;16.47;;;;;;;-0.58;92.19;98671.06;5121712;27;20351;-79
2021/01/04 08:11:09;;;;;;;42.30;15.57;;;;;;;-0.47;91.42;98684.38;5109185;28;20450;-79
2021/01/04 08:14:17;;;;;;;42.83;16.23;;;;;;;-0.41;91.47;98675.00;5108695;28;20488;-79
2021/01/04 08:16:50;;;;;;;34.97;14.97;;;;;;;-0.48;91.15;98680.03;5092675;28;20071;-79
2021/01/04 08:19:18;;;;;;;40.57;16.67;;;;;;;-0.43;90.02;98661.78;5108665;28;20380;-80
2021/01/04 08:21:55;;;;;;;41.13;17.50;;;;;;;-0.34;90.28;98688.72;5108873;28;20064;-79
2021/01/04 08:24:26;;;;;;;33.60;15.93;;;;;;;-0.45;90.03;98662.88;5108360;28;20415;-79
2021/01/04 08:27:16;;;;;;;38.33;16.10;;;;;;;-0.32;89.75;98684.09;5108508;28;20044;-79
2021/01/04 08:29:54;;;;;;;39.67;15.88;;;;;;;-0.36;90.11;98654.97;5108135;28;20059;-80
2021/01/04 08:32:24;;;;;;;40.77;16.17;;;;;;;-0.24;89.98;98666.44;5108838;28;20066;-80
2021/01/04 08:34:52;;;;;;;40.67;17.07;;;;;;;-0.20;90.26;98677.72;5108111;28;20048;-80
2021/01/04 08:37:35;;;;;;;36.40;15.37;;;;;;;-0.33;89.55;98672.56;5108368;28;20040;-80
2021/01/04 08:40:19;;;;;;;37.17;15.73;;;;;;;-0.24;90.13;98686.94;5114430;28;20047;-79
2021/01/04 08:42:46;;;;;;;45.10;17.13;;;;;;;-0.18;89.71;98689.13;5113895;27;20132;-80
2021/01/04 08:45:14;;;;;;;39.20;16.07;;;;;;;-0.19;89.68;98682.09;5107652;28;20047;-79
2021/01/04 08:47:48;;;;;;;35.53;16.33;;;;;;;-0.17;90.18;98688.13;5107529;28;20040;-79
2021/01/04 08:50:28;;;;;;;38.80;16.10;;;;;;;-0.15;89.83;98693.34;5107976;28;20052;-80
2021/01/04 08:52:57;;;;;;;37.13;15.60;;;;;;;-0.33;89.71;98669.03;5114061;28;20110;-80
2021/01/04 08:55:27;;;;;;;36.80;16.27;;;;;;;-0.22;89.84;98674.34;5108286;28;20302;-80
2021/01/04 08:57:53;;;;;;;35.47;16.15;;;;;;;-0.23;90.19;98680.66;5107499;28;20492;-79
2021/01/04 09:00:23;;;;;;;35.73;15.53;;;;;;;-0.11;90.27;98689.47;5108543;28;20044;-79
2021/01/04 09:02:51;;;;;;;37.05;16.92;;;;;;;-0.25;89.37;98664.75;5107747;28;20117;-79
2021/01/04 09:05:32;;;;;;;41.27;16.23;;;;;;;-0.13;89.17;98691.44;5108065;28;20052;-79
2021/01/04 09:07:59;;;;;;;37.27;16.20;;;;;;;-0.04;90.18;98693.31;5107818;28;20047;-79
2021/01/04 09:10:37;;;;;;;36.30;14.97;;;;;;;-0.06;90.30;98697.94;5108346;28;20060;-79
2021/01/04 09:13:18;;;;;;;36.97;15.70;;;;;;;-0.16;90.18;98686.34;5088044;28;20102;-80
2021/01/04 09:15:45;;;;;;;36.83;16.13;;;;;;;-0.01;90.27;98701.91;5104208;28;20496;-81
2021/01/04 09:18:33;;;;;;;39.53;16.33;;;;;;;0.14;88.93;98701.59;5099370;28;20048;-82
2021/01/04 09:21:01;;;;;;;37.33;17.13;;;;;;;0.08;89.39;98694.13;5094004;28;20097;-82
2021/01/04 09:23:35;;;;;;;34.73;15.40;;;;;;;0.16;88.69;98699.66;5094884;28;20063;-83
2021/01/04 09:26:24;;;;;;;43.40;17.70;;;;;;;0.01;88.36;98666.22;5093473;28;20479;-81
2021/01/04 09:29:04;;;;;;;39.65;16.52;;;;;;;0.03;88.04;98674.94;5086099;28;20044;-82
2021/01/04 09:31:31;;;;;;;43.85;18.33;;;;;;;0.16;87.96;98691.63;5093899;28;20124;-81
2021/01/04 09:33:57;;;;;;;38.50;18.47;;;;;;;-0.01;88.58;98675.19;5094632;28;20044;-81
2021/01/04 09:36:24;;;;;;;44.93;18.23;;;;;;;0.31;88.05;98703.69;5093667;28;20045;-81
2021/01/04 09:39:03;;;;;;;43.33;17.73;;;;;;;0.19;88.36;98686.00;5094084;28;20413;-82
2021/01/04 09:41:30;;;;;;;37.90;16.02;;;;;;;0.28;88.44;98695.09;5094048;28;20067;-82
2021/01/04 09:44:04;;;;;;;38.80;16.40;;;;;;;0.21;88.19;98692.09;5093843;28;20060;-82
2021/01/04 09:46:41;;;;;;;38.87;17.70;;;;;;;0.10;88.19;98684.97;5093708;28;20040;-82
2021/01/04 09:49:12;;;;;;;39.90;18.60;;;;;;;0.28;88.04;98698.59;5093871;28;20055;-82
2021/01/04 09:51:57;;;;;;;38.60;15.83;;;;;;;0.19;87.66;98687.84;5093355;28;20090;-82
2021/01/04 09:54:36;;;;;;;34.43;15.20;;;;;;;0.17;87.81;98678.13;5093315;28;20488;-82
2021/01/04 09:57:08;;;;;;;35.20;14.93;;;;;;;0.17;88.14;98683.47;5094006;28;20130;-82
2021/01/04 09:59:41;;;;;;;37.40;16.55;;;;;;;0.22;88.05;98669.72;5093631;28;20063;-82
2021/01/04 10:02:21;;;;;;;38.73;17.40;;;;;;;0.35;87.78;98673.03;5093935;28;20056;-82
2021/01/04 10:04:47;;;;;;;38.47;15.77;;;;;;;0.22;88.00;98656.34;5090719;28;20407;-82
2021/01/04 10:07:18;;;;;;;40.17;16.70;;;;;;;0.33;88.36;98672.31;5079219;28;20036;-82
2021/01/04 10:09:49;;;;;;;40.47;17.87;;;;;;;0.33;88.15;98669.66;5093262;28;20481;-82
2021/01/04 10:12:20;;;;;;;45.23;18.83;;;;;;;0.31;87.76;98658.22;5093548;28;20043;-82
2021/01/04 10:14:47;;;;;;;39.15;16.42;;;;;;;0.42;87.71;98675.16;5093156;28;20055;-82
2021/01/04 10:17:17;;;;;;;38.17;18.00;;;;;;;0.34;87.39;98651.78;5093825;28;20424;-82
2021/01/04 10:19:51;;;;;;;42.17;18.73;;;;;;;0.52;87.60;98670.72;5093598;28;20059;-82
2021/01/04 10:22:24;;;;;;;39.30;17.88;;;;;;;0.23;88.14;98647.34;5092495;28;20109;-82
2021/01/04 10:24:55;;;;;;;44.40;17.50;;;;;;;0.44;88.23;98671.41;5093254;28;20052;-82
2021/01/04 10:27:26;;;;;;;41.17;18.25;;;;;;;0.51;88.06;98664.53;5093122;28;20052;-83
2021/01/04 10:29:54;;;;;;;41.10;17.80;;;;;;;0.32;87.94;98645.72;5090976;28;20051;-82
2021/01/04 10:32:24;;;;;;;38.67;18.13;;;;;;;0.35;88.19;98651.63;5092825;28;20097;-82
2021/01/04 10:34:53;;;;;;;33.25;16.33;;;;;;;0.41;88.60;98660.13;5093066;28;20131;-82
2021/01/04 10:37:37;;;;;;;35.63;17.10;;;;;;;0.47;87.94;98671.13;5092568;28;20048;-82
2021/01/04 10:40:06;;;;;;;38.03;16.77;;;;;;;0.64;87.67;98666.97;5073015;28;20189;-82
2021/01/04 10:42:36;;;;;;;41.53;18.67;;;;;;;0.50;87.31;98646.78;5074977;28;20056;-82
2021/01/04 10:45:07;;;;;;;38.38;16.88;;;;;;;0.61;87.57;98653.03;5092709;28;20071;-82
2021/01/04 10:47:53;;;;;;;39.53;16.83;;;;;;;0.61;87.09;98653.03;5092976;28;20084;-82
2021/01/04 10:50:21;;;;;;;37.13;16.58;;;;;;;0.60;87.51;98656.69;5091033;28;20055;-82
2021/01/04 10:52:56;;;;;;;41.63;17.50;;;;;;;0.70;87.03;98663.75;5093146;28;20078;-82
2021/01/04 10:55:25;;;;;;;39.75;18.40;;;;;;;0.79;86.69;98670.13;5092250;28;20198;-82
2021/01/04 10:57:58;;;;;;;40.37;16.70;;;;;;;0.72;86.96;98652.09;5092659;28;20051;-82
2021/01/04 11:00:30;;;;;;;42.13;19.95;;;;;;;0.75;87.12;98665.19;5092569;28;20424;-82
2021/01/04 11:03:05;;;;;;;41.07;17.83;;;;;;;0.80;87.09;98652.25;5092812;28;20048;-82
2021/01/04 11:05:37;;;;;;;38.58;17.05;;;;;;;0.60;86.97;98637.97;5092199;28;20269;-82
2021/01/04 11:08:17;;;;;;;36.47;17.60;;;;;;;0.68;87.84;98644.34;5092725;28;20044;-82
2021/01/04 11:10:53;;;;;;;37.55;17.05;;;;;;;0.62;87.30;98628.00;5092639;28;20047;-82
2021/01/04 11:13:28;;;;;;;38.10;16.20;;;;;;;0.69;87.13;98635.34;5092929;28;20084;-82
2021/01/04 11:16:06;;;;;;;34.65;15.18;;;;;;;0.64;86.70;98642.06;5092723;28;20055;-82
2021/01/04 11:18:32;;;;;;;34.30;15.65;;;;;;;0.64;87.25;98644.75;5072226;28;20067;-82
2021/01/04 11:20:59;;;;;;;35.38;15.18;;;;;;;0.77;86.00;98636.47;5072221;28;20048;-81
2021/01/04 11:23:25;;;;;;;28.25;14.05;;;;;;;0.74;84.15;98628.72;5089806;28;20135;-81
2021/01/04 11:25:51;;;;;;;30.30;14.83;;;;;;;0.95;84.48;98653.59;5092355;28;20040;-81
2021/01/04 11:28:18;;;;;;;30.85;13.82;;;;;;;0.81;84.54;98627.19;5091985;28;20048;-81
2021/01/04 11:30:45;;;;;;;31.50;14.23;;;;;;;0.93;84.38;98641.31;5092615;28;20051;-81
2021/01/04 11:33:15;;;;;;;29.93;14.20;;;;;;;0.92;84.35;98627.09;5102182;28;20039;-81
2021/01/04 11:35:41;;;;;;;32.92;14.73;;;;;;;0.80;84.80;98610.31;5071862;28;20059;-81
2021/01/04 11:38:08;;;;;;;35.10;14.60;;;;;;;0.90;84.29;98636.25;5075341;28;20537;-81
2021/01/04 11:40:35;;;;;;;30.67;14.03;;;;;;;0.77;85.53;98618.59;5091398;28;20051;-81
2021/01/04 11:43:02;;;;;;;33.93;15.57;;;;;;;0.88;84.32;98626.50;5092179;28;20048;-81
2021/01/04 11:45:28;;;;;;;35.10;16.40;;;;;;;0.93;84.42;98627.94;5090924;28;20048;-81
2021/01/04 11:47:55;;;;;;;34.83;15.50;;;;;;;0.72;83.74;98612.78;5091991;28;20397;-81
2021/01/04 11:50:22;;;;;;;34.77;15.33;;;;;;;0.70;84.55;98604.06;5090727;28;20044;-81
2021/01/04 11:52:48;;;;;;;31.80;14.93;;;;;;;0.63;84.46;98600.22;5091831;28;20135;-81
2021/01/04 11:55:17;;;;;;;30.43;14.70;;;;;;;0.73;84.76;98619.00;5091142;28;20065;-80
2021/01/04 11:57:43;;;;;;;36.67;15.07;;;;;;;0.64;84.63;98612.63;5091386;28;20080;-80
2021/01/04 12:00:11;;;;;;;34.33;14.87;;;;;;;0.73;84.62;98613.66;5091720;28;20059;-80
2021/01/04 12:02:38;;;;;;;33.13;15.67;;;;;;;0.70;84.56;98626.31;5091034;28;20048;-80